ASN logo
ASN Wikibase Occurrence # 244383
Last updated: 15 September 2021
This information is added by users of ASN. Neither ASN nor the Flight Safety Foundation are responsible for the completeness or correctness of this information. If you feel this information is incomplete or incorrect, you can submit corrected information.

Date:23-OCT-2020
Time:14:40 LT
Type:Silhouette image of generic AT46 model; specific model in this crash may look slightly different
ATR 42-600
Owner/operator:Japan Air Commuter
Registration: JA07JC
MSN: 1408
Fatalities:Fatalities: 0 / Occupants: 11
Other fatalities:0
Aircraft damage: Minor
Location:Kikai Airport (KKX/RJKI) -   Japan
Phase: Taxi
Nature:Passenger - Scheduled
Departure airport:Kagoshima Airport (KOJ/RJFK)
Destination airport:Kikai Airport (KKX/RJKI)
Narrative:
Japan Air Commuter flight JC3785, an ATR-42, suffered propeller and fuselage damaged during taxi after landing in windy conditions on runway 07 at Kikai Airport, Japan. No injuries reported.

Weather about the incident time (0540Z):
RJKI 230500Z AUTO 34020KT 9999 FEW029 SCT031 BKN038 23/15 Q1010
RJKI 230600Z AUTO 34020G31KT 9999 FEW032 SCT039 BKN047 22/14 Q1010

Sources:

Video:
http://www.goklerdeyiz.net/yolcu-ucagi-inisinde-hasar-aldi/
https://www.kts-tv.co.jp/news/4845/
https://www.flightradar24.com/data/aircraft/ja07jc#25d8dc1a
https://flyteam.jp/news/article/128886

Other occurrences involving this aircraft

8 Jan 2020 JA07JC Japan Air Commuter 0 Amami Airport (ASJ/RJKA) min
Runway excursion.


Images:

Photo of JA07JC courtesy AirHistory.net


Osaka - Itami International (RJOO / ITM)
23 May 2021; (c) Hajime Suzuki

Revision history:

Date/timeContributorUpdates
25-Oct-2020 16:48 Goklerdeyiz.net Added
25-Oct-2020 16:49 harro Updated [Other fatalities, Departure airport, Destination airport, Source, Narrative]
25-Oct-2020 16:52 harro Updated [Time, Location, Narrative]
25-Oct-2020 16:54 harro Updated [Total occupants, Source]
25-Oct-2020 20:13 isamuel Updated [Time, Phase, Source, Narrative]

Corrections or additions? ... Edit this accident description